Nearby METAR Reports

 

YSRI - Richmond (aus-Af, Australia
Distance from station: WSW 35km
Updated: 05/12/2022 15:00
Mostly cloudy
Mostly cloudy
 Wind from SW
Wind: SW 13 km/h
Temperature: 33°C
Dew Point: 13°C
Humidity: 30%
Barometer: 1002 hPa
Clouds: Mostly cloudy
Visibility: 10 km
Cloud details: Partly cloudy 2926 m
Mostly cloudy 3810 m
2022/12/05 04:00 YSRI 050400Z AUTO 23007KT 220V310 9999 // SCT096 BKN125 33/13 Q1002
YSSY - Sydney Intl Airp, Australia
Distance from station: S 47km
Updated: 05/12/2022 15:00
Partly cloudy
Partly cloudy
 Wind from NNE
Wind: NNE 35 km/h
Temperature: 29°C
Heat Index: 29°C
Dew Point: 17°C
Humidity: 48%
Barometer: 1003 hPa
Clouds: Partly cloudy
Visibility: 10 km
Cloud details: Few Clouds 1219 m
Partly cloudy 8534 m
2022/12/05 04:00 YSSY 050400Z 03019KT 9999 FEW040 SCT280 29/17 Q1003
 
YWLM - Williamtown Arp, Australia
Distance from station: NE 104km
Updated: 05/12/2022 15:00
Clear
Clear
 Wind from NW
Wind: NW 17 km/h
Temperature: 32°C
Dew Point: 13°C
Humidity: 31%
Barometer: 1004 hPa
Summary: Clear
Visibility: greater than 10 km
2022/12/05 04:00 YWLM 050400Z 31009KT 260V330 CAVOK 32/13 Q1004 RF00.0/000.0
YSNW - Nowra (aus-Navy), Australia
Distance from station: SSW 168km
Updated: 16/11/2022 13:33
NOT Current
Light rain, Showers, Mostly cloudy
Light rain, Showers, Mostly cloudy
 Wind from S
Wind: S 28 km/h, Gust: 50 km/h
Temperature: 10°C
Wind Chill: 7°C
Dew Point: 8°C
Humidity: 88%
Barometer: 1010 hPa
Summary: Light rain, Showers
Clouds: Mostly cloudy
Visibility: 10 km
Cloud details: Partly cloudy 610 m
Mostly cloudy 1463 m
Mostly cloudy 1768 m
2022/11/16 02:33 YSNW 160233Z AUTO 17015G27KT 9999 -SHRA SCT020 BKN048 BKN058 10/08 Q1010
 
YMDG - Mudgee Arpt, Australia
Distance from station: NW 177km
Updated: 16/11/2022 13:34
NOT Current
Overcast
Overcast
 Wind from SW
Wind: SW 31 km/h, Gust: 50 km/h
Temperature: 14°C
Dew Point: 4°C
Humidity: 51%
Barometer: 1011 hPa
Clouds: Overcast
Visibility: 10 km
Cloud details: Partly cloudy 1615 m
Mostly cloudy 2012 m
Overcast 2469 m
2022/11/16 02:34 YMDG 160234Z AUTO 23017G27KT 9999 // SCT053 BKN066 OVC081 14/04 Q1011
YTRE - Taree Airport, Australia
Distance from station: NE 224km
Updated: 14/11/2022 20:56
NOT Current
Clear
Clear
 Wind from S
Wind: S 9 km/h
Temperature: 20°C
Dew Point: 20°C
Humidity: 100%
Barometer: 1005 hPa
Clouds: Clear
Visibility: 10 km
2022/11/14 09:56 YTRE 140956Z AUTO 18005KT 130V260 9999 // NCD 20/20 Q1005
 
YSCB - Canberra (civ/Mi, Australia
Distance from station: SW 265km
Updated: 05/12/2022 15:00
Partly cloudy
Partly cloudy
 Wind from N
Wind: N 19 km/h
Temperature: 25°C
Dew Point: 13°C
Humidity: 47%
Barometer: 1005 hPa
Clouds: Partly cloudy
Visibility: 10 km
Cloud details: Partly cloudy 2103 m
Partly cloudy 3353 m
2022/12/05 04:00 YSCB 050400Z AUTO 01010KT 9999 // SCT069 SCT110 25/13 Q1005
YSTW - Tamworth Airport, Australia
Distance from station: N 275km
Updated: 05/12/2022 15:00
Partly cloudy
Partly cloudy
 Wind from WNW
Wind: WNW 13 km/h
Temperature: 29°C
Dew Point: 10°C
Humidity: 31%
Barometer: 1008 hPa
Clouds: Partly cloudy
Visibility: 10 km
Cloud details: Partly cloudy 2225 m
Partly cloudy 2743 m
2022/12/05 04:00 YSTW 050400Z AUTO 29007KT 9999 // SCT073 SCT090 29/10 Q1008
 
YSDU - Dubbo, Australia
Distance from station: WNW 280km
Updated: 05/12/2022 15:00
Partly cloudy
Partly cloudy
 Wind from WNW
Wind: WNW 28 km/h
Temperature: 31°C
Dew Point: 9°C
Humidity: 25%
Barometer: 1007 hPa
Clouds: Partly cloudy
Visibility: 10 km
Cloud details: Partly cloudy 2743 m
2022/12/05 04:00 YSDU 050400Z AUTO 30015KT 9999 // SCT090 31/09 Q1007 RF00.0/000.0
YPMQ - Port Macquarie, Australia
Distance from station: NE 284km
Updated: 14/11/2022 15:00
NOT Current
Partly cloudy
Partly cloudy
 Wind from WNW
Wind: WNW 31 km/h, Gust: 54 km/h
Temperature: 31°C
Heat Index: 31°C
Dew Point: 16°C
Humidity: 40%
Barometer: 1001 hPa
Clouds: Partly cloudy
Visibility: 10 km
Cloud details: Partly cloudy 2377 m
2022/11/14 04:00 YPMQ 140400Z AUTO 29017G29KT 9999 // SCT078 31/16 Q1001
 
YCBB - Coonabarabran, Australia
Distance from station: NW 300km
Updated: 16/11/2022 12:30
NOT Current
Overcast
Overcast
 Wind from SW
Wind: SW 28 km/h, Gust: 48 km/h
Temperature: 13°C
Dew Point: 1°C
Humidity: 44%
Barometer: 1012 hPa
Clouds: Overcast
Visibility: 10 km
Cloud details: Overcast 1676 m
2022/11/16 01:30 YCBB 160130Z AUTO 23015G26KT 9999 // OVC055 13/01 Q1012